Time;durP1;ratioP1;P1;durP2;ratioP2;P2;SDS_P1;SDS_P2;PMS_P1;PMS_P2;Temp;Humidity;BMP_temperature;BMP_pressure;BME280_temperature;BME280_humidity;BME280_pressure;Samples;Min_cycle;Max_cycle;Signal;HPM_P1;HPM_P2
2023/11/21 00:01:21;;;;;;;5.75;2.60;;;;;;;;;;5004649;28;20350;-65
2023/11/21 00:03:48;;;;;;;6.88;2.33;;;;;;;;;;5010399;28;20471;-65
2023/11/21 00:06:14;;;;;;;7.82;3.40;;;;;;;;;;5012669;28;20120;-66
2023/11/21 00:08:40;;;;;;;11.32;4.10;;;;;;;;;;5008399;28;20030;-66
2023/11/21 00:11:06;;;;;;;6.38;3.60;;;;;;;;;;4993844;28;20033;-65
2023/11/21 00:13:33;;;;;;;8.20;3.35;;;;;;;;;;5007456;28;20025;-66
2023/11/21 00:15:59;;;;;;;6.00;2.95;;;;;;;;;;4995206;28;20035;-66
2023/11/21 00:18:25;;;;;;;12.38;3.38;;;;;;;;;;4999401;28;20022;-65
2023/11/21 00:20:52;;;;;;;14.88;3.67;;;;;;;;;;5003330;28;20041;-71
2023/11/21 00:23:18;;;;;;;9.13;2.55;;;;;;;;;;5021030;28;20454;-66
2023/11/21 00:25:44;;;;;;;12.85;2.97;;;;;;;;;;5020525;28;20045;-68
2023/11/21 00:28:10;;;;;;;5.68;2.70;;;;;;;;;;5021957;28;20037;-66
2023/11/21 00:30:37;;;;;;;8.15;3.17;;;;;;;;;;5016469;28;20519;-67
2023/11/21 00:33:04;;;;;;;6.47;2.70;;;;;;;;;;5015061;28;20033;-67
2023/11/21 00:35:30;;;;;;;7.07;3.15;;;;;;;;;;5021840;28;20402;-70
2023/11/21 00:37:57;;;;;;;11.63;3.28;;;;;;;;;;5018676;28;20038;-65
2023/11/21 00:40:24;;;;;;;6.32;2.35;;;;;;;;;;5021698;28;20513;-66
2023/11/21 00:42:50;;;;;;;8.98;2.92;;;;;;;;;;5017687;28;20024;-66
2023/11/21 00:45:16;;;;;;;9.63;3.17;;;;;;;;;;5022941;28;20147;-65
2023/11/21 00:47:43;;;;;;;9.93;3.42;;;;;;;;;;5014569;28;20443;-66
2023/11/21 00:50:09;;;;;;;8.38;2.85;;;;;;;;;;5005206;28;20820;-67
2023/11/21 00:52:35;;;;;;;10.35;2.75;;;;;;;;;;5020207;28;20033;-66
2023/11/21 00:55:03;;;;;;;6.07;2.88;;;;;;;;;;5018619;28;20825;-69
2023/11/21 00:57:29;;;;;;;9.23;2.53;;;;;;;;;;5022264;28;20120;-65
2023/11/21 00:59:55;;;;;;;8.30;2.38;;;;;;;;;;5018166;28;20039;-65
2023/11/21 01:02:21;;;;;;;8.98;2.78;;;;;;;;;;5016229;28;20267;-65
2023/11/21 01:04:48;;;;;;;8.18;2.53;;;;;;;;;;5018729;28;20060;-65
2023/11/21 01:07:14;;;;;;;9.45;2.80;;;;;;;;;;5021423;28;20021;-65
2023/11/21 01:09:40;;;;;;;9.13;2.90;;;;;;;;;;5022141;28;20030;-65
2023/11/21 01:12:07;;;;;;;7.55;2.72;;;;;;;;;;5022171;28;20034;-66
2023/11/21 01:14:33;;;;;;;13.68;3.67;;;;;;;;;;5021070;28;20025;-65
2023/11/21 01:16:59;;;;;;;8.15;2.90;;;;;;;;;;5014591;28;20033;-64
2023/11/21 01:19:26;;;;;;;10.98;3.00;;;;;;;;;;5016461;28;20022;-66
2023/11/21 01:21:52;;;;;;;5.45;2.60;;;;;;;;;;5020345;28;20032;-66
2023/11/21 01:24:19;;;;;;;11.52;3.95;;;;;;;;;;5013602;28;20103;-65
2023/11/21 01:26:46;;;;;;;10.52;3.50;;;;;;;;;;5012590;28;20026;-64
2023/11/21 01:29:12;;;;;;;8.73;2.63;;;;;;;;;;5017880;28;20541;-65
2023/11/21 01:31:38;;;;;;;6.63;3.08;;;;;;;;;;5021538;28;20445;-66
2023/11/21 01:34:05;;;;;;;7.22;2.95;;;;;;;;;;5012210;28;20037;-67
2023/11/21 01:36:32;;;;;;;6.88;2.15;;;;;;;;;;5014893;28;20060;-66
2023/11/21 01:38:59;;;;;;;4.88;2.33;;;;;;;;;;5019254;28;20057;-66
2023/11/21 01:41:27;;;;;;;11.75;2.65;;;;;;;;;;5021531;28;20017;-68
2023/11/21 01:43:53;;;;;;;4.20;2.33;;;;;;;;;;5001510;28;20049;-66
2023/11/21 01:46:20;;;;;;;8.30;2.58;;;;;;;;;;5017317;28;20045;-66
2023/11/21 01:48:46;;;;;;;8.98;2.47;;;;;;;;;;5011688;28;20442;-66
2023/11/21 01:51:15;;;;;;;12.13;3.33;;;;;;;;;;5017811;28;20026;-65
2023/11/21 01:53:41;;;;;;;9.00;2.65;;;;;;;;;;5020305;28;20030;-65
2023/11/21 01:56:08;;;;;;;7.45;2.45;;;;;;;;;;5022038;28;20033;-66
2023/11/21 01:58:36;;;;;;;7.97;2.42;;;;;;;;;;5006312;28;20080;-66
2023/11/21 02:01:02;;;;;;;4.75;2.40;;;;;;;;;;5023904;28;20503;-65
2023/11/21 02:03:28;;;;;;;9.95;2.65;;;;;;;;;;5017419;28;20033;-65
2023/11/21 02:05:55;;;;;;;14.07;2.47;;;;;;;;;;5018221;28;20030;-66
2023/11/21 02:08:21;;;;;;;5.93;2.30;;;;;;;;;;5017599;28;20033;-66
2023/11/21 02:10:48;;;;;;;3.85;2.33;;;;;;;;;;5021510;28;20049;-66
2023/11/21 02:13:16;;;;;;;8.55;3.47;;;;;;;;;;5018459;28;20487;-66
2023/11/21 02:15:42;;;;;;;11.05;2.80;;;;;;;;;;5016419;28;20402;-65
2023/11/21 02:18:11;;;;;;;8.73;2.60;;;;;;;;;;5018348;28;20150;-65
2023/11/21 02:20:38;;;;;;;9.05;2.40;;;;;;;;;;4998522;28;20029;-66
2023/11/21 02:23:05;;;;;;;5.57;2.30;;;;;;;;;;5023168;28;20025;-69
2023/11/21 02:25:32;;;;;;;8.90;2.60;;;;;;;;;;5025537;28;20111;-66
2023/11/21 02:27:59;;;;;;;11.60;2.70;;;;;;;;;;5024629;28;20442;-66
2023/11/21 02:30:25;;;;;;;6.13;2.28;;;;;;;;;;5020123;28;20095;-66
2023/11/21 02:32:56;;;;;;;7.68;2.60;;;;;;;;;;5018351;28;20079;-66
2023/11/21 02:35:23;;;;;;;7.78;2.88;;;;;;;;;;5017847;28;20455;-66
2023/11/21 02:37:49;;;;;;;7.80;2.40;;;;;;;;;;5025080;28;20025;-66
2023/11/21 02:40:20;;;;;;;5.55;2.40;;;;;;;;;;5000653;28;20029;-67
2023/11/21 02:42:53;;;;;;;9.07;2.30;;;;;;;;;;5021209;28;20075;-65
2023/11/21 02:45:20;;;;;;;3.03;2.13;;;;;;;;;;5020355;28;20029;-65
2023/11/21 02:47:47;;;;;;;6.82;2.20;;;;;;;;;;5026331;28;20692;-67
2023/11/21 02:50:13;;;;;;;6.07;2.13;;;;;;;;;;5012193;28;20029;-66
2023/11/21 02:52:40;;;;;;;11.80;2.65;;;;;;;;;;5019135;28;20040;-65
2023/11/21 02:55:09;;;;;;;5.35;2.13;;;;;;;;;;5019566;28;20053;-66
2023/11/21 02:57:35;;;;;;;9.85;2.85;;;;;;;;;;5027821;28;20509;-65
2023/11/21 03:00:02;;;;;;;4.20;2.10;;;;;;;;;;5021555;28;20504;-64
2023/11/21 03:02:28;;;;;;;3.33;2.15;;;;;;;;;;5011060;28;20022;-64
2023/11/21 03:04:54;;;;;;;4.43;2.30;;;;;;;;;;5021809;28;20399;-66
2023/11/21 03:07:21;;;;;;;6.03;2.90;;;;;;;;;;5020314;28;20391;-69
2023/11/21 03:09:48;;;;;;;11.98;3.20;;;;;;;;;;5014294;28;20282;-66
2023/11/21 03:12:14;;;;;;;7.60;2.42;;;;;;;;;;5022328;28;20030;-66
2023/11/21 03:14:41;;;;;;;10.75;2.72;;;;;;;;;;5006298;28;20365;-66
2023/11/21 03:17:07;;;;;;;11.38;2.65;;;;;;;;;;5025385;28;20037;-65
2023/11/21 03:19:33;;;;;;;3.90;2.38;;;;;;;;;;5018364;28;20410;-65
2023/11/21 03:21:59;;;;;;;7.28;2.30;;;;;;;;;;5017870;28;20133;-65
2023/11/21 03:24:26;;;;;;;9.70;2.45;;;;;;;;;;5023426;28;20132;-65
2023/11/21 03:26:52;;;;;;;6.45;2.05;;;;;;;;;;5014113;28;20080;-65
2023/11/21 03:29:19;;;;;;;9.32;2.58;;;;;;;;;;5022868;28;20501;-66
2023/11/21 03:31:45;;;;;;;7.35;2.38;;;;;;;;;;5014632;28;20483;-66
2023/11/21 03:34:15;;;;;;;5.60;2.30;;;;;;;;;;5015746;28;20425;-65
2023/11/21 03:36:42;;;;;;;4.38;2.33;;;;;;;;;;5017757;28;21179;-67
2023/11/21 03:39:08;;;;;;;11.43;2.63;;;;;;;;;;5020752;28;20029;-66
2023/11/21 03:41:34;;;;;;;5.43;1.85;;;;;;;;;;5028069;28;20031;-66
2023/11/21 03:44:00;;;;;;;6.45;2.17;;;;;;;;;;5024774;28;20033;-66
2023/11/21 03:46:26;;;;;;;5.95;2.28;;;;;;;;;;5022825;28;20112;-66
2023/11/21 03:48:54;;;;;;;5.88;2.20;;;;;;;;;;5024485;28;20033;-66
2023/11/21 03:51:20;;;;;;;4.18;1.98;;;;;;;;;;5025071;28;20334;-65
2023/11/21 03:53:46;;;;;;;7.95;2.17;;;;;;;;;;5021946;28;20084;-66
2023/11/21 03:56:14;;;;;;;5.45;2.40;;;;;;;;;;5022480;28;20029;-65
2023/11/21 03:58:40;;;;;;;7.60;2.38;;;;;;;;;;5018406;28;20025;-65
2023/11/21 04:01:06;;;;;;;6.35;2.35;;;;;;;;;;5021146;28;20490;-66
2023/11/21 04:03:32;;;;;;;9.18;2.25;;;;;;;;;;5024280;28;20021;-66
2023/11/21 04:05:59;;;;;;;10.35;2.10;;;;;;;;;;5019594;28;20041;-66
2023/11/21 04:08:27;;;;;;;6.20;2.85;;;;;;;;;;5023567;28;20494;-66
2023/11/21 04:10:53;;;;;;;3.92;1.95;;;;;;;;;;5014988;28;20038;-65
2023/11/21 04:13:19;;;;;;;8.82;2.45;;;;;;;;;;5010828;28;20037;-66
2023/11/21 04:15:46;;;;;;;9.25;1.92;;;;;;;;;;5013363;28;20041;-66
2023/11/21 04:18:12;;;;;;;4.97;2.03;;;;;;;;;;5011185;28;20098;-65
2023/11/21 04:20:38;;;;;;;11.35;2.40;;;;;;;;;;5023600;28;20480;-65
2023/11/21 04:23:04;;;;;;;5.22;2.25;;;;;;;;;;5020286;28;20037;-65
2023/11/21 04:25:30;;;;;;;4.10;2.00;;;;;;;;;;5010196;28;20083;-65
2023/11/21 04:27:56;;;;;;;8.07;2.28;;;;;;;;;;4995476;28;20033;-66
2023/11/21 04:30:22;;;;;;;7.20;2.25;;;;;;;;;;5014655;28;20029;-66
2023/11/21 04:32:49;;;;;;;7.07;2.20;;;;;;;;;;5011286;28;20518;-66
2023/11/21 04:35:15;;;;;;;2.78;2.03;;;;;;;;;;5017657;28;20083;-65
2023/11/21 04:37:41;;;;;;;5.78;2.15;;;;;;;;;;5018608;28;20022;-65
2023/11/21 04:40:08;;;;;;;4.72;2.47;;;;;;;;;;5022721;28;20474;-65
2023/11/21 04:42:37;;;;;;;8.75;2.67;;;;;;;;;;5024666;28;20049;-65
2023/11/21 04:45:11;;;;;;;8.05;2.80;;;;;;;;;;5023581;28;20065;-65
2023/11/21 04:47:37;;;;;;;5.57;2.40;;;;;;;;;;5022587;28;20036;-65
2023/11/21 04:50:03;;;;;;;10.02;2.25;;;;;;;;;;5023913;28;20041;-65
2023/11/21 04:52:30;;;;;;;5.80;2.00;;;;;;;;;;5012359;28;20490;-65
2023/11/21 04:54:58;;;;;;;7.28;2.58;;;;;;;;;;5018198;28;20029;-66
2023/11/21 04:57:24;;;;;;;5.80;1.98;;;;;;;;;;5020063;28;20038;-65
2023/11/21 04:59:50;;;;;;;3.97;2.10;;;;;;;;;;5019640;28;20537;-67
2023/11/21 05:02:18;;;;;;;4.07;2.28;;;;;;;;;;5009462;28;20057;-65
2023/11/21 05:04:44;;;;;;;3.17;2.05;;;;;;;;;;5015035;28;20057;-64
2023/11/21 05:07:11;;;;;;;5.20;2.50;;;;;;;;;;5016955;28;20096;-65
2023/11/21 05:09:37;;;;;;;5.88;2.35;;;;;;;;;;5017966;28;20033;-65
2023/11/21 05:12:03;;;;;;;5.35;2.58;;;;;;;;;;5011778;28;20056;-66
2023/11/21 05:14:30;;;;;;;5.95;2.20;;;;;;;;;;5014682;28;20065;-65
2023/11/21 05:16:56;;;;;;;3.05;2.42;;;;;;;;;;5016365;28;20044;-65
2023/11/21 05:19:22;;;;;;;5.93;2.05;;;;;;;;;;5023929;28;20032;-65
2023/11/21 05:21:48;;;;;;;4.10;2.13;;;;;;;;;;5022972;28;20061;-65
2023/11/21 05:24:15;;;;;;;8.13;3.10;;;;;;;;;;5021021;28;20116;-65
2023/11/21 05:26:41;;;;;;;2.72;2.10;;;;;;;;;;5016976;28;20033;-66
2023/11/21 05:29:08;;;;;;;7.68;2.25;;;;;;;;;;5016765;28;20720;-66
2023/11/21 05:31:34;;;;;;;5.15;2.03;;;;;;;;;;5017083;28;20021;-66
2023/11/21 05:34:00;;;;;;;9.25;2.05;;;;;;;;;;5018927;28;20768;-65
2023/11/21 05:36:27;;;;;;;9.95;2.60;;;;;;;;;;5017480;28;20029;-68
2023/11/21 05:38:53;;;;;;;7.15;2.30;;;;;;;;;;5020119;28;20040;-65
2023/11/21 05:41:19;;;;;;;3.63;2.40;;;;;;;;;;5016857;28;20025;-65
2023/11/21 05:43:45;;;;;;;5.88;2.17;;;;;;;;;;5014484;28;20116;-65
2023/11/21 05:46:11;;;;;;;3.78;2.03;;;;;;;;;;5020441;28;21022;-64
2023/11/21 05:48:37;;;;;;;4.97;2.10;;;;;;;;;;5016557;28;20268;-65
2023/11/21 05:51:05;;;;;;;9.25;2.80;;;;;;;;;;5014518;28;20622;-65
2023/11/21 05:53:31;;;;;;;6.78;2.08;;;;;;;;;;5022507;28;20045;-65
2023/11/21 05:55:57;;;;;;;10.30;2.45;;;;;;;;;;5020540;28;20029;-65
2023/11/21 05:58:23;;;;;;;7.82;2.00;;;;;;;;;;5018702;28;20032;-65
2023/11/21 06:00:50;;;;;;;6.15;2.58;;;;;;;;;;5017024;28;20605;-65
2023/11/21 06:03:17;;;;;;;3.30;2.40;;;;;;;;;;5014277;28;20032;-65
2023/11/21 06:05:43;;;;;;;7.00;2.50;;;;;;;;;;5015096;28;20035;-65
2023/11/21 06:08:10;;;;;;;4.55;2.10;;;;;;;;;;5013486;28;20072;-65
2023/11/21 06:10:36;;;;;;;5.57;2.25;;;;;;;;;;5013098;28;20029;-66
2023/11/21 06:13:03;;;;;;;4.68;2.63;;;;;;;;;;5013941;28;20612;-65
2023/11/21 06:15:30;;;;;;;12.25;2.53;;;;;;;;;;5013655;28;20029;-66
2023/11/21 06:17:56;;;;;;;2.83;2.10;;;;;;;;;;5018930;28;20810;-66
2023/11/21 06:20:22;;;;;;;5.10;1.85;;;;;;;;;;5019110;28;20022;-65
2023/11/21 06:22:53;;;;;;;6.57;2.30;;;;;;;;;;5014472;28;20095;-65
2023/11/21 06:25:22;;;;;;;4.05;2.17;;;;;;;;;;5022847;28;20133;-65
2023/11/21 06:27:48;;;;;;;5.18;2.65;;;;;;;;;;5012115;28;20025;-64
2023/11/21 06:30:15;;;;;;;6.80;2.20;;;;;;;;;;5013814;28;20121;-64
2023/11/21 06:32:41;;;;;;;7.32;2.42;;;;;;;;;;5010078;28;20399;-65
2023/11/21 06:35:11;;;;;;;7.35;2.05;;;;;;;;;;5021300;28;20036;-65
2023/11/21 06:37:38;;;;;;;9.38;2.78;;;;;;;;;;5015170;28;20053;-69
2023/11/21 06:40:04;;;;;;;8.90;2.22;;;;;;;;;;5017192;28;20045;-69
2023/11/21 06:42:30;;;;;;;11.70;2.38;;;;;;;;;;5015786;28;20028;-70
2023/11/21 06:44:57;;;;;;;7.50;2.22;;;;;;;;;;5019856;28;20053;-70
2023/11/21 06:47:29;;;;;;;3.80;2.10;;;;;;;;;;5023651;28;20076;-69
2023/11/21 06:49:56;;;;;;;6.95;2.28;;;;;;;;;;5014787;28;20029;-68
2023/11/21 06:52:22;;;;;;;7.53;2.80;;;;;;;;;;5011540;28;20041;-68
2023/11/21 06:54:52;;;;;;;9.25;2.90;;;;;;;;;;5012064;28;20022;-68
2023/11/21 06:57:18;;;;;;;6.60;2.10;;;;;;;;;;5011621;28;20060;-69
2023/11/21 06:59:44;;;;;;;5.03;2.03;;;;;;;;;;5017046;28;20030;-70
2023/11/21 07:02:10;;;;;;;5.90;2.35;;;;;;;;;;5011080;28;20482;-68
2023/11/21 07:04:37;;;;;;;9.48;2.85;;;;;;;;;;5025498;28;20041;-70
2023/11/21 07:07:03;;;;;;;7.53;2.28;;;;;;;;;;5011898;28;20058;-72
2023/11/21 07:09:30;;;;;;;4.85;2.65;;;;;;;;;;5014461;28;20037;-70
2023/11/21 07:11:57;;;;;;;7.53;2.60;;;;;;;;;;5023681;28;20041;-70
2023/11/21 07:14:23;;;;;;;7.32;2.15;;;;;;;;;;5018168;28;20415;-70
2023/11/21 07:16:51;;;;;;;4.95;2.75;;;;;;;;;;5025724;28;20037;-71
2023/11/21 07:19:17;;;;;;;7.07;2.40;;;;;;;;;;5019883;28;20029;-69
2023/11/21 07:21:43;;;;;;;4.95;2.30;;;;;;;;;;5018932;28;20026;-69
2023/11/21 07:24:11;;;;;;;6.72;2.20;;;;;;;;;;5018333;28;20037;-68
2023/11/21 07:26:37;;;;;;;8.90;2.58;;;;;;;;;;5016682;28;20029;-68
2023/11/21 07:29:03;;;;;;;4.15;1.88;;;;;;;;;;5021011;28;20259;-69
2023/11/21 07:31:31;;;;;;;4.75;2.00;;;;;;;;;;5016712;28;20061;-68
2023/11/21 07:33:57;;;;;;;4.72;2.53;;;;;;;;;;5015662;28;20030;-69
2023/11/21 07:36:23;;;;;;;10.88;3.00;;;;;;;;;;5019460;28;20499;-69
2023/11/21 07:38:50;;;;;;;6.10;3.22;;;;;;;;;;5021702;28;20403;-69
2023/11/21 07:41:17;;;;;;;11.45;2.65;;;;;;;;;;5026356;28;20032;-68
2023/11/21 07:43:43;;;;;;;6.65;2.58;;;;;;;;;;5014269;28;20108;-69
2023/11/21 07:46:09;;;;;;;8.27;2.28;;;;;;;;;;5013629;28;20037;-69
2023/11/21 07:48:36;;;;;;;3.50;2.05;;;;;;;;;;5022647;28;20032;-69
2023/11/21 07:51:03;;;;;;;6.13;2.20;;;;;;;;;;5006998;28;20034;-68
2023/11/21 07:53:29;;;;;;;6.28;2.65;;;;;;;;;;5008637;28;20125;-68
2023/11/21 07:55:56;;;;;;;12.52;2.78;;;;;;;;;;5013288;28;20033;-68
2023/11/21 07:58:22;;;;;;;7.53;2.63;;;;;;;;;;5020707;28;20112;-68
2023/11/21 08:00:48;;;;;;;7.30;2.55;;;;;;;;;;5013743;28;20036;-68
2023/11/21 08:03:14;;;;;;;9.30;1.90;;;;;;;;;;5018903;28;20063;-69
2023/11/21 08:05:40;;;;;;;6.72;2.30;;;;;;;;;;5012360;28;20041;-68
2023/11/21 08:08:07;;;;;;;9.65;2.67;;;;;;;;;;5024063;28;20040;-68
2023/11/21 08:10:33;;;;;;;5.68;2.20;;;;;;;;;;5017714;28;20026;-68
2023/11/21 08:13:00;;;;;;;11.13;2.13;;;;;;;;;;5020780;28;20038;-68
2023/11/21 08:15:26;;;;;;;6.30;2.90;;;;;;;;;;5009421;28;20030;-68
2023/11/21 08:17:52;;;;;;;7.40;2.67;;;;;;;;;;5010683;28;20534;-68
2023/11/21 08:20:18;;;;;;;9.80;2.50;;;;;;;;;;5014961;28;20026;-68
2023/11/21 08:22:45;;;;;;;6.93;2.45;;;;;;;;;;5014073;28;20037;-68
2023/11/21 08:25:12;;;;;;;6.57;2.67;;;;;;;;;;5023719;28;20041;-69
2023/11/21 08:27:39;;;;;;;7.93;2.22;;;;;;;;;;5019507;28;20189;-68
2023/11/21 08:30:05;;;;;;;5.47;2.47;;;;;;;;;;5001927;28;20535;-69
2023/11/21 08:32:35;;;;;;;6.10;2.22;;;;;;;;;;5012723;28;20044;-69
2023/11/21 08:35:01;;;;;;;6.68;3.13;;;;;;;;;;5015019;28;20030;-69
2023/11/21 08:37:30;;;;;;;12.93;2.58;;;;;;;;;;5013328;28;20026;-69
2023/11/21 08:39:59;;;;;;;5.95;2.83;;;;;;;;;;5012069;28;20030;-69
2023/11/21 08:42:28;;;;;;;6.63;2.75;;;;;;;;;;5013186;28;20033;-70
2023/11/21 08:44:54;;;;;;;9.50;2.63;;;;;;;;;;5012666;28;20017;-69
2023/11/21 08:47:21;;;;;;;4.13;2.20;;;;;;;;;;5017411;28;20029;-68
2023/11/21 08:49:47;;;;;;;3.92;2.17;;;;;;;;;;5012180;28;20026;-69
2023/11/21 08:52:13;;;;;;;5.63;2.92;;;;;;;;;;5024255;28;20121;-69
2023/11/21 08:54:39;;;;;;;5.78;2.30;;;;;;;;;;5012656;28;20028;-69
2023/11/21 08:57:06;;;;;;;9.50;2.30;;;;;;;;;;5016603;28;20030;-69
2023/11/21 08:59:32;;;;;;;10.82;2.70;;;;;;;;;;5014748;28;20205;-68
2023/11/21 09:01:58;;;;;;;6.07;2.42;;;;;;;;;;5015067;28;20022;-68
2023/11/21 09:04:24;;;;;;;8.50;2.30;;;;;;;;;;5020045;28;20018;-68
2023/11/21 09:06:50;;;;;;;7.30;2.42;;;;;;;;;;5014057;28;20040;-68
2023/11/21 09:09:16;;;;;;;4.88;2.10;;;;;;;;;;5020645;28;20451;-69
2023/11/21 09:11:44;;;;;;;8.18;2.65;;;;;;;;;;5021850;28;20486;-69
2023/11/21 09:14:12;;;;;;;4.20;2.20;;;;;;;;;;5013558;28;20045;-69
2023/11/21 09:16:38;;;;;;;12.48;2.60;;;;;;;;;;5018974;28;20419;-69
2023/11/21 09:19:05;;;;;;;5.90;2.70;;;;;;;;;;5017884;28;20431;-68
2023/11/21 09:21:31;;;;;;;8.95;2.22;;;;;;;;;;5024316;28;20148;-69
2023/11/21 09:23:58;;;;;;;10.07;2.60;;;;;;;;;;5017813;28;20029;-69
2023/11/21 09:26:24;;;;;;;9.82;3.28;;;;;;;;;;5012614;28;20472;-69
2023/11/21 09:28:50;;;;;;;8.75;2.75;;;;;;;;;;5013470;28;20094;-67
2023/11/21 09:31:16;;;;;;;6.88;2.47;;;;;;;;;;5013708;28;20038;-68
2023/11/21 09:33:44;;;;;;;4.95;2.40;;;;;;;;;;5021818;28;20030;-68
2023/11/21 09:36:16;;;;;;;5.38;2.78;;;;;;;;;;5011197;28;20018;-68
2023/11/21 09:38:42;;;;;;;3.60;2.22;;;;;;;;;;5015224;28;20022;-71
2023/11/21 09:41:17;;;;;;;8.50;2.42;;;;;;;;;;5027034;28;20033;-69
2023/11/21 09:43:45;;;;;;;3.67;2.25;;;;;;;;;;5013529;28;20022;-68
2023/11/21 09:46:16;;;;;;;7.20;2.22;;;;;;;;;;5012506;28;20033;-68
2023/11/21 09:48:43;;;;;;;6.60;2.17;;;;;;;;;;5013835;28;20061;-70
2023/11/21 09:51:11;;;;;;;5.65;2.15;;;;;;;;;;5022160;28;20037;-68
2023/11/21 09:53:37;;;;;;;8.60;2.55;;;;;;;;;;5017724;28;20052;-68
2023/11/21 09:56:04;;;;;;;4.10;2.13;;;;;;;;;;5011107;28;20092;-68
2023/11/21 09:58:33;;;;;;;8.00;2.38;;;;;;;;;;5018184;28;20025;-69
2023/11/21 10:01:00;;;;;;;4.97;2.42;;;;;;;;;;5016261;28;20100;-67
2023/11/21 10:03:26;;;;;;;13.23;3.40;;;;;;;;;;5016252;28;20406;-68
2023/11/21 10:05:54;;;;;;;10.27;2.90;;;;;;;;;;5013833;28;20087;-69
2023/11/21 10:08:21;;;;;;;4.38;2.10;;;;;;;;;;5015461;28;20045;-68
2023/11/21 10:10:50;;;;;;;5.45;3.00;;;;;;;;;;5012812;28;20310;-69
2023/11/21 10:13:17;;;;;;;11.05;2.53;;;;;;;;;;5016816;28;20034;-69
2023/11/21 10:15:48;;;;;;;5.47;2.60;;;;;;;;;;5016159;28;20036;-69
2023/11/21 10:18:18;;;;;;;7.05;2.47;;;;;;;;;;5016308;28;20099;-68
2023/11/21 10:20:51;;;;;;;8.18;2.38;;;;;;;;;;5016636;28;20052;-68
2023/11/21 10:23:19;;;;;;;4.68;2.80;;;;;;;;;;5006281;28;20095;-69
2023/11/21 10:25:45;;;;;;;12.82;3.42;;;;;;;;;;5007271;28;20492;-69
2023/11/21 10:28:11;;;;;;;10.27;2.40;;;;;;;;;;5016985;28;20092;-68
2023/11/21 10:30:38;;;;;;;6.03;2.40;;;;;;;;;;5017845;28;20491;-68
2023/11/21 10:33:05;;;;;;;6.30;2.35;;;;;;;;;;5014363;28;20499;-69
2023/11/21 10:35:40;;;;;;;7.90;2.50;;;;;;;;;;4994349;28;20088;-69
2023/11/21 10:38:09;;;;;;;6.63;2.10;;;;;;;;;;5014412;28;20022;-69
2023/11/21 10:40:39;;;;;;;5.38;2.58;;;;;;;;;;4999387;28;20052;-70
2023/11/21 10:43:18;;;;;;;6.22;2.45;;;;;;;;;;5011315;28;20503;-68
2023/11/21 10:45:44;;;;;;;13.48;2.38;;;;;;;;;;5014942;28;20036;-69
2023/11/21 10:48:16;;;;;;;4.43;2.20;;;;;;;;;;5020367;28;20138;-69
2023/11/21 10:50:43;;;;;;;9.60;2.35;;;;;;;;;;5016041;28;20026;-68
2023/11/21 10:53:11;;;;;;;6.05;2.47;;;;;;;;;;5010265;28;20033;-68
2023/11/21 10:55:38;;;;;;;10.23;2.20;;;;;;;;;;5020419;28;20029;-68
2023/11/21 10:58:05;;;;;;;3.22;2.25;;;;;;;;;;5016787;28;20026;-70
2023/11/21 11:00:32;;;;;;;7.57;2.35;;;;;;;;;;5016524;28;20033;-69
2023/11/21 11:02:59;;;;;;;5.80;2.22;;;;;;;;;;5027461;28;20032;-69
2023/11/21 11:05:26;;;;;;;7.43;2.42;;;;;;;;;;5010246;28;20136;-69
2023/11/21 11:07:54;;;;;;;4.13;1.98;;;;;;;;;;5021957;28;20071;-69
2023/11/21 11:10:22;;;;;;;5.88;2.22;;;;;;;;;;5021760;28;20433;-70
2023/11/21 11:12:49;;;;;;;11.23;3.10;;;;;;;;;;5015370;28;20525;-71
2023/11/21 11:15:17;;;;;;;3.80;2.17;;;;;;;;;;5014725;28;20148;-71
2023/11/21 11:17:44;;;;;;;5.22;2.33;;;;;;;;;;5021360;28;20079;-70
2023/11/21 11:20:12;;;;;;;3.17;2.28;;;;;;;;;;5014175;28;20044;-70
2023/11/21 11:22:43;;;;;;;8.65;2.22;;;;;;;;;;5018498;28;20030;-75
2023/11/21 11:25:29;;;;;;;7.78;2.40;;;;;;;;;;5014496;28;20056;-69
2023/11/21 11:28:01;;;;;;;2.90;2.25;;;;;;;;;;5001582;28;20056;-68
2023/11/21 11:30:43;;;;;;;5.75;2.33;;;;;;;;;;5016134;28;20037;-69
2023/11/21 11:33:29;;;;;;;4.03;2.88;;;;;;;;;;5017024;28;20038;-69
2023/11/21 11:35:55;;;;;;;6.60;2.38;;;;;;;;;;5020901;28;20045;-68
2023/11/21 11:38:25;;;;;;;6.25;2.38;;;;;;;;;;5017646;28;20130;-70
2023/11/21 11:40:53;;;;;;;6.60;2.20;;;;;;;;;;5021619;28;20048;-70
2023/11/21 11:43:26;;;;;;;6.57;2.40;;;;;;;;;;5014616;28;20030;-69
2023/11/21 11:45:53;;;;;;;7.50;2.35;;;;;;;;;;5017653;28;20037;-70
2023/11/21 11:48:22;;;;;;;3.85;2.10;;;;;;;;;;5014529;28;20100;-70
2023/11/21 11:51:04;;;;;;;12.00;2.85;;;;;;;;;;5019422;28;20056;-69
2023/11/21 11:53:36;;;;;;;6.75;2.30;;;;;;;;;;5012059;28;20037;-69
2023/11/21 11:56:20;;;;;;;5.10;2.22;;;;;;;;;;5015504;28;20034;-70
2023/11/21 11:58:48;;;;;;;9.25;4.38;;;;;;;;;;5012508;28;20075;-70
2023/11/21 12:01:17;;;;;;;6.60;2.40;;;;;;;;;;5013803;28;20383;-69
2023/11/21 12:03:43;;;;;;;4.35;2.00;;;;;;;;;;5017688;28;20158;-69
2023/11/21 12:06:11;;;;;;;8.57;2.17;;;;;;;;;;5022650;28;20029;-69
2023/11/21 12:08:37;;;;;;;7.75;3.17;;;;;;;;;;5016876;28;20543;-70
2023/11/21 12:11:05;;;;;;;5.97;2.17;;;;;;;;;;5017542;28;20036;-70
2023/11/21 12:13:31;;;;;;;4.68;2.22;;;;;;;;;;5015659;28;20111;-70
2023/11/21 12:15:57;;;;;;;3.78;2.20;;;;;;;;;;5012013;28;20622;-70
2023/11/21 12:18:26;;;;;;;4.93;2.08;;;;;;;;;;5017555;28;20034;-69
2023/11/21 12:20:52;;;;;;;6.63;2.30;;;;;;;;;;5022997;28;20550;-68
2023/11/21 12:23:18;;;;;;;9.90;2.30;;;;;;;;;;5024043;28;21209;-68
2023/11/21 12:25:45;;;;;;;6.82;2.45;;;;;;;;;;5026184;28;20538;-70
2023/11/21 12:28:12;;;;;;;8.32;2.10;;;;;;;;;;5018052;28;20030;-69
2023/11/21 12:30:39;;;;;;;6.22;2.10;;;;;;;;;;5016730;28;20048;-69
2023/11/21 12:33:08;;;;;;;8.30;2.30;;;;;;;;;;5011692;28;20446;-68
2023/11/21 12:35:35;;;;;;;8.15;2.00;;;;;;;;;;5013298;28;20014;-69
2023/11/21 12:38:05;;;;;;;3.00;2.20;;;;;;;;;;5019404;28;20025;-70
2023/11/21 12:40:31;;;;;;;5.40;2.50;;;;;;;;;;5028007;28;20076;-70
2023/11/21 12:42:58;;;;;;;3.90;2.85;;;;;;;;;;5017805;28;20029;-68
2023/11/21 12:45:28;;;;;;;4.88;1.83;;;;;;;;;;5010624;28;20115;-68
2023/11/21 12:48:03;;;;;;;4.38;1.90;;;;;;;;;;5015443;28;20199;-69
2023/11/21 12:50:33;;;;;;;5.15;2.38;;;;;;;;;;5017342;28;20022;-69
2023/11/21 12:53:01;;;;;;;5.75;2.13;;;;;;;;;;5017177;28;20124;-69
2023/11/21 12:55:30;;;;;;;14.30;2.47;;;;;;;;;;5018299;28;20563;-69
2023/11/21 12:57:57;;;;;;;5.05;2.10;;;;;;;;;;5016575;28;20037;-70
2023/11/21 13:00:51;;;;;;;3.45;2.22;;;;;;;;;;5012474;28;20514;-68
2023/11/21 13:03:18;;;;;;;3.40;3.05;;;;;;;;;;5011991;28;20044;-68
2023/11/21 13:05:50;;;;;;;9.55;2.15;;;;;;;;;;5012253;28;20030;-68
2023/11/21 13:08:19;;;;;;;4.88;2.17;;;;;;;;;;5016129;28;20041;-69
2023/11/21 13:10:46;;;;;;;6.60;2.42;;;;;;;;;;4998532;28;20030;-72
2023/11/21 13:13:17;;;;;;;5.65;2.30;;;;;;;;;;5011810;28;20395;-70
2023/11/21 13:15:49;;;;;;;5.22;2.70;;;;;;;;;;5020615;28;20487;-69
2023/11/21 13:18:16;;;;;;;5.00;2.30;;;;;;;;;;5013215;28;20052;-69
2023/11/21 13:20:43;;;;;;;3.35;2.25;;;;;;;;;;5021312;28;20503;-69
2023/11/21 13:23:11;;;;;;;4.63;2.00;;;;;;;;;;5017133;28;20026;-72
2023/11/21 13:25:40;;;;;;;4.60;2.40;;;;;;;;;;5019287;28;20054;-69
2023/11/21 13:28:07;;;;;;;5.57;2.67;;;;;;;;;;5013435;28;20505;-68
2023/11/21 13:30:36;;;;;;;4.97;2.40;;;;;;;;;;5015877;28;20429;-71
2023/11/21 13:33:06;;;;;;;5.32;2.25;;;;;;;;;;5019375;28;20606;-69
2023/11/21 13:35:35;;;;;;;9.10;2.47;;;;;;;;;;5000476;28;20147;-69
2023/11/21 13:38:07;;;;;;;3.83;2.53;;;;;;;;;;5018672;28;20030;-69
2023/11/21 13:40:45;;;;;;;4.03;2.35;;;;;;;;;;5018875;28;20029;-69
2023/11/21 13:43:15;;;;;;;3.28;2.17;;;;;;;;;;5017342;28;20036;-68
2023/11/21 13:45:41;;;;;;;4.22;2.78;;;;;;;;;;5019172;28;20024;-68
2023/11/21 13:48:13;;;;;;;5.47;2.33;;;;;;;;;;5008777;28;20038;-69
2023/11/21 13:50:57;;;;;;;7.13;2.58;;;;;;;;;;5016887;28;20041;-69
2023/11/21 13:53:24;;;;;;;4.05;2.53;;;;;;;;;;5010855;28;20034;-68
2023/11/21 13:55:51;;;;;;;4.10;2.50;;;;;;;;;;5011197;28;20033;-68
2023/11/21 13:58:20;;;;;;;6.43;2.83;;;;;;;;;;5014363;28;20354;-68
2023/11/21 14:00:47;;;;;;;6.78;2.33;;;;;;;;;;5017287;28;20028;-68
2023/11/21 14:03:20;;;;;;;6.05;2.60;;;;;;;;;;5011739;28;20037;-69
2023/11/21 14:05:52;;;;;;;7.13;2.10;;;;;;;;;;5009177;28;20026;-69
2023/11/21 14:08:23;;;;;;;9.38;2.50;;;;;;;;;;5010942;28;20033;-68
2023/11/21 14:10:57;;;;;;;5.80;2.28;;;;;;;;;;5012063;28;20026;-68
2023/11/21 14:13:24;;;;;;;9.00;2.40;;;;;;;;;;5002770;28;20034;-69
2023/11/21 14:15:57;;;;;;;4.95;2.17;;;;;;;;;;5012201;28;20395;-68
2023/11/21 14:18:27;;;;;;;4.47;2.15;;;;;;;;;;5011473;28;20020;-68
2023/11/21 14:20:54;;;;;;;9.70;3.63;;;;;;;;;;5008807;28;20034;-68
2023/11/21 14:23:23;;;;;;;7.05;2.70;;;;;;;;;;5019081;28;20022;-68
2023/11/21 14:25:52;;;;;;;11.30;3.03;;;;;;;;;;5006560;28;20601;-69
2023/11/21 14:28:19;;;;;;;12.77;3.47;;;;;;;;;;5009536;28;20115;-69
2023/11/21 14:30:46;;;;;;;10.27;3.97;;;;;;;;;;5016428;28;20026;-68
2023/11/21 14:33:13;;;;;;;5.85;4.00;;;;;;;;;;5017820;28;20254;-69
2023/11/21 14:35:39;;;;;;;12.52;4.93;;;;;;;;;;5016018;28;20088;-68
2023/11/21 14:38:06;;;;;;;13.25;5.50;;;;;;;;;;5021353;28;20108;-68
2023/11/21 14:40:33;;;;;;;16.05;6.47;;;;;;;;;;5001745;28;20014;-69
2023/11/21 14:43:05;;;;;;;14.93;6.18;;;;;;;;;;5021984;28;20438;-69